Time;durP1;ratioP1;P1;durP2;ratioP2;P2;SDS_P1;SDS_P2;PMS_P1;PMS_P2;Temp;Humidity;BMP_temperature;BMP_pressure;BME280_temperature;BME280_humidity;BME280_pressure;Samples;Min_cycle;Max_cycle;Signal;HPM_P1;HPM_P2
2022/07/28 00:01:34;;;;;;;8.50;1.40;;;14.00;96.80;;;;;;4969637;28;20031;-56
2022/07/28 00:04:00;;;;;;;7.07;1.45;;;14.00;96.80;;;;;;4969824;28;20493;-58
2022/07/28 00:06:25;;;;;;;3.42;1.13;;;14.00;96.90;;;;;;4969775;28;20098;-57
2022/07/28 00:08:51;;;;;;;5.47;1.25;;;14.00;97.50;;;;;;4970804;28;20035;-60
2022/07/28 00:11:17;;;;;;;5.15;1.42;;;13.90;97.60;;;;;;4969040;28;20046;-56
2022/07/28 00:13:43;;;;;;;2.55;1.02;;;13.80;97.90;;;;;;4972013;28;20026;-60
2022/07/28 00:16:08;;;;;;;6.38;1.10;;;13.80;98.10;;;;;;4970415;28;20025;-57
2022/07/28 00:18:34;;;;;;;6.43;1.25;;;13.70;98.20;;;;;;4968608;28;20093;-55
2022/07/28 00:21:01;;;;;;;5.18;1.42;;;13.70;98.40;;;;;;4969416;28;20038;-58
2022/07/28 00:23:26;;;;;;;8.18;1.65;;;13.70;98.50;;;;;;4972716;28;20070;-58
2022/07/28 00:25:52;;;;;;;3.80;1.30;;;13.60;99.00;;;;;;4960837;28;20540;-56
2022/07/28 00:28:18;;;;;;;5.93;1.50;;;13.60;99.00;;;;;;4942503;28;20074;-58
2022/07/28 00:30:43;;;;;;;5.88;1.38;;;13.60;99.10;;;;;;4971805;28;20492;-56
2022/07/28 00:33:09;;;;;;;5.55;1.30;;;13.60;99.40;;;;;;4970108;28;20037;-57
2022/07/28 00:35:35;;;;;;;5.90;1.40;;;13.60;99.40;;;;;;4967042;28;20026;-55
2022/07/28 00:38:00;;;;;;;5.68;1.40;;;13.70;99.50;;;;;;4966513;28;20025;-57
2022/07/28 00:41:09;;;;;;;4.38;1.15;;;13.70;99.60;;;;;;4968224;28;20033;-53
2022/07/28 00:43:12;;;;;;;7.88;1.65;;;13.80;99.70;;;;;;4964810;28;20066;-53
2022/07/28 00:45:38;;;;;;;5.28;2.00;;;13.80;99.70;;;;;;4967140;28;20039;-57
2022/07/28 00:48:04;;;;;;;4.00;1.33;;;13.80;99.70;;;;;;4970457;28;20085;-52
2022/07/28 00:50:29;;;;;;;1.80;1.10;;;13.80;99.90;;;;;;4969573;28;20105;-56
2022/07/28 00:52:56;;;;;;;3.55;1.20;;;13.80;99.90;;;;;;4969483;28;20034;-58
2022/07/28 00:55:23;;;;;;;7.55;1.50;;;13.80;99.90;;;;;;4969941;28;20043;-60
2022/07/28 00:57:49;;;;;;;4.78;1.38;;;13.80;99.90;;;;;;4969419;28;20031;-58
2022/07/28 01:00:15;;;;;;;2.58;1.10;;;13.80;99.90;;;;;;4969352;28;20038;-58
2022/07/28 01:02:41;;;;;;;3.88;1.48;;;13.80;99.90;;;;;;4961963;28;20030;-58
2022/07/28 01:05:07;;;;;;;6.78;1.33;;;13.80;99.90;;;;;;4969744;28;20042;-58
2022/07/28 01:07:42;;;;;;;5.95;1.30;;;13.70;99.90;;;;;;4963659;28;20039;-57
2022/07/28 01:10:14;;;;;;;4.40;1.30;;;13.70;99.90;;;;;;4965948;28;20038;-55
2022/07/28 01:12:43;;;;;;;5.72;1.40;;;13.70;99.90;;;;;;4969742;28;20153;-57
2022/07/28 01:15:28;;;;;;;3.75;1.17;;;13.60;99.90;;;;;;4968193;28;20120;-59
2022/07/28 01:18:02;;;;;;;2.25;1.08;;;13.60;99.90;;;;;;4966231;28;20033;-58
2022/07/28 01:20:34;;;;;;;7.03;1.73;;;13.50;99.90;;;;;;4967248;28;20031;-57
2022/07/28 01:23:11;;;;;;;5.78;1.50;;;13.50;99.90;;;;;;4967887;28;20030;-58
2022/07/28 01:25:43;;;;;;;5.53;1.30;;;13.50;99.90;;;;;;4961489;28;20034;-57
2022/07/28 01:28:35;;;;;;;7.15;1.40;;;13.50;99.90;;;;;;4942467;28;20055;-59
2022/07/28 01:31:06;;;;;;;6.45;1.80;;;13.40;99.90;;;;;;4966544;28;20404;-55
2022/07/28 01:33:37;;;;;;;5.20;1.02;;;13.40;99.90;;;;;;4963488;28;20043;-56
2022/07/28 01:36:10;;;;;;;7.53;1.33;;;13.30;99.90;;;;;;4971166;28;20041;-60
2022/07/28 01:38:38;;;;;;;2.75;1.23;;;13.30;99.90;;;;;;4968833;28;20579;-57
2022/07/28 01:41:08;;;;;;;4.43;1.45;;;13.30;99.90;;;;;;4970313;28;20049;-56
2022/07/28 01:43:38;;;;;;;6.55;1.48;;;13.20;99.90;;;;;;4970846;28;20045;-60
2022/07/28 01:46:05;;;;;;;5.65;1.77;;;13.20;99.90;;;;;;4970453;28;20046;-59
2022/07/28 01:48:33;;;;;;;6.32;1.45;;;13.20;99.90;;;;;;4970635;28;20041;-54
2022/07/28 01:51:00;;;;;;;3.05;1.35;;;13.20;99.90;;;;;;4968580;28;20042;-59
2022/07/28 01:53:29;;;;;;;7.53;1.27;;;13.10;99.90;;;;;;4968906;28;20063;-56
2022/07/28 01:55:57;;;;;;;6.05;1.25;;;13.10;99.90;;;;;;4964585;28;20065;-58
2022/07/28 01:58:24;;;;;;;5.97;1.40;;;13.10;99.90;;;;;;4969213;28;20027;-57
2022/07/28 02:00:51;;;;;;;5.85;1.30;;;13.10;99.90;;;;;;4970531;28;20034;-57
2022/07/28 02:03:18;;;;;;;2.58;1.10;;;13.10;99.90;;;;;;4970695;28;20092;-58
2022/07/28 02:05:49;;;;;;;4.05;0.95;;;13.10;99.90;;;;;;4962996;28;20042;-58
2022/07/28 02:08:18;;;;;;;4.65;1.73;;;13.10;99.90;;;;;;4970204;28;20504;-57
2022/07/28 02:11:38;;;;;;;5.68;1.52;;;13.10;99.90;;;;;;4971892;28;20043;-56
2022/07/28 02:13:32;;;;;;;2.60;1.08;;;13.10;99.90;;;;;;4971205;28;20039;-56
2022/07/28 02:16:01;;;;;;;7.53;1.40;;;13.10;99.90;;;;;;4968635;28;20496;-58
2022/07/28 02:18:28;;;;;;;3.08;0.88;;;13.10;99.90;;;;;;4970953;28;20031;-57
2022/07/28 02:20:54;;;;;;;2.45;1.15;;;13.10;99.90;;;;;;4969895;28;20031;-58
2022/07/28 02:23:22;;;;;;;4.20;1.40;;;13.00;99.90;;;;;;4972211;28;20054;-57
2022/07/28 02:25:50;;;;;;;3.65;1.40;;;13.00;99.90;;;;;;4973186;28;20049;-55
2022/07/28 02:28:18;;;;;;;4.45;1.30;;;13.00;99.90;;;;;;4955351;28;20514;-56
2022/07/28 02:30:51;;;;;;;5.85;1.45;;;13.00;99.90;;;;;;4973581;28;20030;-59
2022/07/28 02:33:20;;;;;;;3.35;1.23;;;13.00;99.90;;;;;;4971037;28;20047;-58
2022/07/28 02:35:59;;;;;;;4.97;1.08;;;12.90;99.90;;;;;;4971961;28;20505;-55
2022/07/28 02:38:34;;;;;;;4.05;1.52;;;12.90;99.90;;;;;;4973876;28;20031;-59
2022/07/28 02:41:07;;;;;;;4.22;1.25;;;12.90;99.90;;;;;;4972967;28;20038;-57
2022/07/28 02:43:37;;;;;;;3.05;1.27;;;12.90;99.90;;;;;;4973941;28;20140;-55
2022/07/28 02:46:09;;;;;;;6.88;1.30;;;12.90;99.90;;;;;;4971325;28;20039;-55
2022/07/28 02:48:37;;;;;;;7.07;1.48;;;12.90;99.90;;;;;;4969338;28;20128;-55
2022/07/28 02:51:06;;;;;;;4.63;1.35;;;12.80;99.90;;;;;;4969599;28;20030;-58
2022/07/28 02:53:33;;;;;;;5.85;1.80;;;12.70;99.90;;;;;;4973351;28;20137;-54
2022/07/28 02:56:00;;;;;;;6.35;1.33;;;12.60;99.90;;;;;;4970195;28;20031;-56
2022/07/28 02:58:26;;;;;;;4.75;1.30;;;12.60;99.90;;;;;;4972685;28;20122;-56
2022/07/28 03:00:54;;;;;;;6.05;1.55;;;12.50;99.90;;;;;;4966288;28;20037;-55
2022/07/28 03:03:21;;;;;;;4.65;1.48;;;12.50;99.90;;;;;;4972785;28;20413;-54
2022/07/28 03:05:47;;;;;;;4.88;1.20;;;12.40;99.90;;;;;;4971376;28;20094;-60
2022/07/28 03:08:15;;;;;;;2.85;1.30;;;12.40;99.90;;;;;;4973244;28;20031;-60
2022/07/28 03:10:41;;;;;;;6.78;1.42;;;12.40;99.90;;;;;;4971898;28;20049;-59
2022/07/28 03:13:07;;;;;;;6.60;2.13;;;12.40;99.90;;;;;;4969530;28;20028;-60
2022/07/28 03:15:34;;;;;;;6.70;1.45;;;12.40;99.90;;;;;;4971415;28;20086;-60
2022/07/28 03:18:01;;;;;;;4.13;1.38;;;12.40;99.90;;;;;;4971665;28;20058;-57
2022/07/28 03:20:27;;;;;;;5.80;1.50;;;12.40;99.90;;;;;;4971431;28;20085;-57
2022/07/28 03:22:52;;;;;;;4.95;1.50;;;12.50;99.90;;;;;;4972987;28;20034;-55
2022/07/28 03:25:35;;;;;;;4.07;1.23;;;12.50;99.90;;;;;;4971708;28;20567;-60
2022/07/28 03:28:02;;;;;;;4.35;1.88;;;12.60;99.90;;;;;;4954844;28;20043;-57
2022/07/28 03:30:33;;;;;;;2.55;1.30;;;12.60;99.90;;;;;;4972736;28;20035;-59
2022/07/28 03:33:01;;;;;;;3.58;1.25;;;12.60;99.90;;;;;;4971464;28;20065;-60
2022/07/28 03:35:30;;;;;;;3.70;1.38;;;12.60;99.90;;;;;;4971348;28;20437;-56
2022/07/28 03:38:19;;;;;;;3.60;1.52;;;12.60;99.90;;;;;;4972084;28;20035;-57
2022/07/28 03:40:47;;;;;;;7.65;2.22;;;12.60;99.90;;;;;;4968754;28;20027;-58
2022/07/28 03:43:15;;;;;;;3.83;1.38;;;12.50;99.90;;;;;;4971266;28;20090;-59
2022/07/28 03:45:41;;;;;;;5.88;1.80;;;12.50;99.90;;;;;;4975554;28;20058;-57
2022/07/28 03:48:07;;;;;;;4.40;1.40;;;12.40;99.90;;;;;;4965902;28;20078;-56
2022/07/28 03:50:33;;;;;;;3.92;1.80;;;12.40;99.90;;;;;;4972125;28;20042;-60
2022/07/28 03:53:03;;;;;;;8.38;1.95;;;12.30;99.90;;;;;;4970271;28;20030;-59
2022/07/28 03:55:29;;;;;;;8.35;1.98;;;12.30;99.90;;;;;;4971765;28;20093;-58
2022/07/28 03:57:58;;;;;;;5.97;1.75;;;12.20;99.90;;;;;;4971082;28;20027;-59
2022/07/28 04:00:24;;;;;;;8.23;2.00;;;12.20;99.90;;;;;;4971552;28;20114;-58
2022/07/28 04:02:50;;;;;;;3.95;1.63;;;12.10;99.90;;;;;;4971322;28;20110;-56
2022/07/28 04:05:17;;;;;;;4.72;1.90;;;12.10;99.90;;;;;;4971589;28;20035;-57
2022/07/28 04:07:44;;;;;;;5.32;2.22;;;12.00;99.90;;;;;;4970228;28;20035;-57
2022/07/28 04:10:12;;;;;;;4.50;2.00;;;12.00;99.90;;;;;;4970453;28;20519;-55
2022/07/28 04:13:03;;;;;;;4.75;2.20;;;12.10;99.90;;;;;;4970676;28;20046;-58
2022/07/28 04:15:31;;;;;;;4.07;1.92;;;12.10;99.90;;;;;;4959592;28;20049;-54
2022/07/28 04:17:57;;;;;;;5.55;2.10;;;12.20;99.90;;;;;;4967864;28;20081;-55
2022/07/28 04:20:24;;;;;;;3.13;1.75;;;12.20;99.90;;;;;;4970587;28;20058;-57
2022/07/28 04:22:50;;;;;;;5.25;1.85;;;12.30;99.90;;;;;;4971708;28;20046;-55
2022/07/28 04:25:26;;;;;;;4.07;1.70;;;12.40;99.90;;;;;;4970334;28;20031;-60
2022/07/28 04:27:53;;;;;;;8.00;1.88;;;12.50;99.90;;;;;;4952224;28;20043;-57
2022/07/28 04:30:23;;;;;;;6.80;1.90;;;12.50;99.90;;;;;;4970056;28;20464;-58
2022/07/28 04:32:50;;;;;;;3.70;1.67;;;12.60;99.90;;;;;;4971968;28;20062;-55
2022/07/28 04:35:19;;;;;;;7.55;2.25;;;12.60;99.90;;;;;;4969578;28;20027;-59
2022/07/28 04:37:47;;;;;;;5.13;1.83;;;12.60;99.90;;;;;;4973573;28;20484;-55
2022/07/28 04:40:13;;;;;;;5.88;1.85;;;12.60;99.90;;;;;;4979389;28;20042;-57
2022/07/28 04:42:39;;;;;;;5.45;1.73;;;12.70;99.90;;;;;;4978235;28;20042;-55
2022/07/28 04:45:06;;;;;;;5.72;1.58;;;12.70;99.90;;;;;;4978268;28;20041;-56
2022/07/28 04:47:33;;;;;;;8.13;1.83;;;12.80;99.90;;;;;;4976478;28;20027;-59
2022/07/28 04:49:58;;;;;;;9.60;2.10;;;12.90;99.90;;;;;;4979226;28;20047;-55
2022/07/28 04:52:25;;;;;;;2.70;1.35;;;13.10;99.90;;;;;;4980478;28;20026;-57
2022/07/28 04:54:52;;;;;;;7.70;1.70;;;13.30;99.90;;;;;;4979472;28;20034;-52
2022/07/28 04:57:18;;;;;;;8.32;1.80;;;13.90;99.90;;;;;;4977501;28;20030;-55
2022/07/28 04:59:44;;;;;;;7.95;2.03;;;15.00;99.90;;;;;;4971151;28;20133;-57
2022/07/28 05:02:11;;;;;;;9.57;2.47;;;16.40;99.90;;;;;;4976548;28;20038;-57
2022/07/28 05:04:37;;;;;;;6.97;1.52;;;17.30;97.20;;;;;;4976578;28;20583;-55
2022/07/28 05:07:03;;;;;;;11.32;1.63;;;17.60;96.30;;;;;;4976786;28;20408;-59
2022/07/28 05:09:30;;;;;;;10.68;1.83;;;18.00;95.10;;;;;;4977291;28;20457;-57
2022/07/28 05:11:56;;;;;;;6.72;1.38;;;18.50;93.90;;;;;;4971678;28;20034;-57
2022/07/28 05:14:21;;;;;;;3.95;1.58;;;18.90;92.70;;;;;;4971260;28;20023;-58
2022/07/28 05:16:47;;;;;;;4.50;1.52;;;19.00;92.20;;;;;;4969469;28;20031;-57
2022/07/28 05:19:12;;;;;;;3.83;1.77;;;18.70;92.40;;;;;;4970333;28;20030;-60
2022/07/28 05:21:38;;;;;;;6.35;2.30;;;18.40;92.70;;;;;;4969520;28;20465;-60
2022/07/28 05:24:04;;;;;;;5.80;1.67;;;18.00;93.50;;;;;;4971095;28;20481;-60
2022/07/28 05:26:31;;;;;;;4.22;1.63;;;17.70;94.60;;;;;;4969262;28;20053;-57
2022/07/28 05:28:56;;;;;;;2.83;1.75;;;17.40;95.40;;;;;;4955221;28;20047;-60
2022/07/28 05:31:22;;;;;;;4.57;2.03;;;17.20;95.70;;;;;;4969025;28;20489;-59
2022/07/28 05:33:48;;;;;;;9.13;2.13;;;17.10;96.10;;;;;;4971141;28;20089;-58
2022/07/28 05:36:13;;;;;;;5.57;1.95;;;17.10;96.60;;;;;;4967918;28;20030;-58
2022/07/28 05:38:39;;;;;;;10.13;1.63;;;17.00;96.30;;;;;;4971668;28;20046;-60
2022/07/28 05:41:05;;;;;;;4.00;1.60;;;16.80;96.50;;;;;;4966837;28;20401;-59
2022/07/28 05:43:31;;;;;;;5.43;1.77;;;16.70;97.20;;;;;;4971073;28;20032;-58
2022/07/28 05:45:57;;;;;;;3.30;1.60;;;16.50;97.80;;;;;;4973702;28;20042;-57
2022/07/28 05:48:23;;;;;;;8.20;2.15;;;16.50;98.00;;;;;;4973857;28;20043;-61
2022/07/28 05:50:49;;;;;;;6.72;1.88;;;16.40;98.80;;;;;;4974335;28;20118;-60
2022/07/28 05:53:15;;;;;;;4.45;1.40;;;16.40;98.30;;;;;;4973778;28;20030;-60
2022/07/28 05:55:41;;;;;;;5.53;1.60;;;16.50;98.70;;;;;;4976390;28;20030;-59
2022/07/28 05:58:06;;;;;;;11.98;1.75;;;16.60;98.30;;;;;;4977205;28;20041;-58
2022/07/28 06:00:32;;;;;;;5.72;2.25;;;16.60;98.10;;;;;;4981089;28;20035;-59
2022/07/28 06:03:01;;;;;;;5.95;2.47;;;16.70;98.40;;;;;;4982175;28;20113;-59
2022/07/28 06:05:28;;;;;;;4.70;1.73;;;16.80;98.30;;;;;;4980917;28;20109;-59
2022/07/28 06:07:54;;;;;;;5.10;1.67;;;17.20;97.50;;;;;;4972386;28;20037;-59
2022/07/28 06:10:21;;;;;;;10.00;2.97;;;18.00;96.40;;;;;;4972483;28;20030;-59
2022/07/28 06:12:49;;;;;;;6.15;1.80;;;19.00;95.00;;;;;;4974373;28;20026;-58
2022/07/28 06:15:17;;;;;;;8.52;1.50;;;20.00;93.00;;;;;;4972277;28;20085;-59
2022/07/28 06:17:43;;;;;;;7.75;1.40;;;20.70;91.80;;;;;;4967422;28;20023;-61
2022/07/28 06:20:11;;;;;;;5.57;1.48;;;21.80;87.60;;;;;;4973166;28;20117;-57
2022/07/28 06:22:44;;;;;;;5.47;1.30;;;22.10;84.40;;;;;;4973799;28;20511;-61
2022/07/28 06:25:17;;;;;;;3.65;1.35;;;22.10;85.70;;;;;;4972788;28;20051;-61
2022/07/28 06:27:49;;;;;;;3.90;1.40;;;23.20;83.00;;;;;;4974123;28;20437;-60
2022/07/28 06:30:16;;;;;;;3.90;1.50;;;24.40;79.80;;;;;;4965690;28;20035;-62
2022/07/28 06:32:42;;;;;;;4.97;1.00;;;26.10;73.20;;;;;;4981558;28;20030;-58
2022/07/28 06:35:08;;;;;;;1.98;1.00;;;27.00;71.40;;;;;;4981007;28;20142;-62
2022/07/28 06:37:33;;;;;;;4.53;1.77;;;27.20;69.10;;;;;;4984942;28;20528;-59
2022/07/28 06:39:59;;;;;;;10.50;1.27;;;28.30;68.30;;;;;;4972467;28;20038;-61
2022/07/28 06:42:25;;;;;;;3.53;1.42;;;28.90;65.90;;;;;;4972631;28;20031;-57
2022/07/28 06:44:51;;;;;;;3.03;1.00;;;29.80;61.70;;;;;;4971872;28;20035;-55
2022/07/28 06:47:18;;;;;;;9.05;1.90;;;29.60;61.20;;;;;;4973469;28;20081;-59
2022/07/28 06:49:43;;;;;;;4.03;1.75;;;29.50;62.40;;;;;;4971863;28;20043;-58
2022/07/28 06:52:09;;;;;;;6.65;1.30;;;29.90;59.90;;;;;;4973251;28;20030;-61
2022/07/28 06:54:35;;;;;;;4.80;1.45;;;30.40;59.30;;;;;;4973319;28;20023;-59
2022/07/28 06:57:01;;;;;;;5.28;1.80;;;31.20;58.30;;;;;;4966009;28;20039;-61
2022/07/28 06:59:26;;;;;;;8.30;1.80;;;31.20;57.60;;;;;;4971561;28;20041;-61
2022/07/28 07:01:52;;;;;;;5.72;1.45;;;31.40;57.60;;;;;;4973524;28;20086;-59
2022/07/28 07:04:18;;;;;;;5.63;1.50;;;31.00;56.90;;;;;;4972221;28;20035;-56
2022/07/28 07:06:43;;;;;;;3.55;1.30;;;30.70;57.90;;;;;;4972692;28;20030;-58
2022/07/28 07:09:09;;;;;;;3.15;1.35;;;31.20;56.00;;;;;;4972076;28;20497;-56
2022/07/28 07:11:37;;;;;;;7.32;1.65;;;32.20;55.70;;;;;;4973117;28;20393;-58
2022/07/28 07:14:03;;;;;;;3.28;1.30;;;31.30;54.90;;;;;;4972481;28;20035;-56
2022/07/28 07:16:29;;;;;;;14.15;1.20;;;30.60;56.10;;;;;;4971379;28;20030;-57
2022/07/28 07:18:54;;;;;;;6.63;1.85;;;30.30;57.40;;;;;;4972431;28;20062;-58
2022/07/28 07:21:21;;;;;;;4.72;1.20;;;30.70;57.20;;;;;;4972522;28;20055;-58
2022/07/28 07:23:47;;;;;;;5.45;1.30;;;31.00;56.30;;;;;;4967964;28;20127;-58
2022/07/28 07:26:13;;;;;;;6.43;1.10;;;31.50;55.10;;;;;;4968237;28;20026;-59
2022/07/28 07:28:40;;;;;;;12.15;1.80;;;31.80;53.70;;;;;;4952670;28;20047;-57
2022/07/28 07:31:06;;;;;;;4.47;1.38;;;31.40;53.80;;;;;;4972779;28;20058;-59
2022/07/28 07:33:31;;;;;;;4.25;1.45;;;31.20;53.90;;;;;;4972160;28;20428;-57
2022/07/28 07:35:57;;;;;;;6.47;1.20;;;30.80;54.20;;;;;;4969587;28;20477;-59
2022/07/28 07:38:23;;;;;;;3.17;1.25;;;31.10;54.10;;;;;;4973146;28;20496;-59
2022/07/28 07:40:50;;;;;;;9.43;1.15;;;31.50;54.10;;;;;;4970699;28;20093;-58
2022/07/28 07:43:16;;;;;;;9.32;1.27;;;32.10;54.00;;;;;;4972931;28;20039;-60
2022/07/28 07:45:42;;;;;;;5.57;1.10;;;32.20;54.60;;;;;;4967630;28;20443;-62
2022/07/28 07:48:08;;;;;;;2.63;1.20;;;32.70;53.20;;;;;;4971569;28;20058;-59
2022/07/28 07:50:34;;;;;;;4.55;1.30;;;32.20;52.40;;;;;;4965519;28;20039;-58
2022/07/28 07:52:59;;;;;;;4.00;1.20;;;31.80;52.70;;;;;;4973205;28;20077;-59
2022/07/28 07:55:26;;;;;;;4.22;2.05;;;31.90;52.50;;;;;;4970590;28;20019;-60
2022/07/28 07:57:52;;;;;;;5.32;1.08;;;32.10;53.80;;;;;;4971851;28;20038;-59
2022/07/28 08:00:18;;;;;;;4.95;1.50;;;32.30;51.50;;;;;;4970696;28;20027;-57
2022/07/28 08:02:43;;;;;;;6.05;1.88;;;31.30;52.20;;;;;;4967578;28;20046;-59
2022/07/28 08:05:09;;;;;;;6.20;1.30;;;31.80;51.90;;;;;;4967691;28;20039;-60
2022/07/28 08:07:35;;;;;;;8.52;1.20;;;32.50;52.10;;;;;;4969792;28;20031;-57
2022/07/28 08:10:01;;;;;;;5.63;1.30;;;32.00;52.20;;;;;;4969921;28;20041;-58
2022/07/28 08:12:27;;;;;;;2.95;1.08;;;32.10;51.60;;;;;;4966647;28;20027;-58
2022/07/28 08:14:53;;;;;;;5.10;1.25;;;31.70;51.50;;;;;;4968250;28;20027;-57
2022/07/28 08:17:19;;;;;;;3.08;1.00;;;31.90;53.00;;;;;;4968461;28;20034;-59
2022/07/28 08:19:45;;;;;;;3.30;0.93;;;32.40;52.60;;;;;;4965487;28;20031;-56
2022/07/28 08:22:11;;;;;;;3.78;1.20;;;32.40;50.20;;;;;;4965239;28;20046;-57
2022/07/28 08:24:36;;;;;;;8.20;1.52;;;31.80;51.40;;;;;;4968493;28;20027;-56
2022/07/28 08:27:03;;;;;;;6.65;1.40;;;32.20;50.50;;;;;;4968010;28;20077;-60
2022/07/28 08:29:29;;;;;;;5.57;1.02;;;32.50;51.20;;;;;;4955293;28;20105;-59
2022/07/28 08:31:54;;;;;;;3.03;1.30;;;33.20;50.90;;;;;;4971767;28;20027;-58
2022/07/28 08:34:20;;;;;;;6.15;1.45;;;32.90;50.20;;;;;;4970600;28;20015;-57
2022/07/28 08:36:46;;;;;;;3.47;1.20;;;31.80;50.80;;;;;;4970815;28;20030;-59
2022/07/28 08:39:11;;;;;;;6.35;1.35;;;31.60;51.50;;;;;;4970566;28;20070;-59
2022/07/28 08:41:42;;;;;;;6.22;1.35;;;32.40;52.20;;;;;;4970727;28;20382;-60
2022/07/28 08:44:13;;;;;;;3.80;1.65;;;32.20;50.70;;;;;;4969750;28;20034;-59
2022/07/28 08:46:40;;;;;;;3.40;1.00;;;32.30;50.20;;;;;;4968050;28;20027;-61
2022/07/28 08:49:11;;;;;;;2.63;1.00;;;32.50;51.50;;;;;;4967289;28;20030;-60
2022/07/28 08:51:38;;;;;;;5.28;1.27;;;32.10;51.30;;;;;;4966110;28;20040;-59
2022/07/28 08:54:05;;;;;;;7.63;1.27;;;32.70;50.10;;;;;;4969956;28;20123;-60
2022/07/28 08:56:31;;;;;;;3.67;0.85;;;32.60;50.30;;;;;;4970411;28;20205;-59
2022/07/28 08:58:57;;;;;;;2.60;1.10;;;32.60;49.30;;;;;;4969270;28;20496;-57
2022/07/28 09:01:23;;;;;;;4.80;1.35;;;32.10;50.60;;;;;;4971428;28;20416;-60
2022/07/28 09:03:50;;;;;;;6.20;1.20;;;32.20;49.70;;;;;;4964562;28;20035;-58
2022/07/28 09:06:16;;;;;;;3.85;1.55;;;32.60;49.50;;;;;;4970271;28;20055;-57
2022/07/28 09:08:42;;;;;;;3.70;1.17;;;32.40;50.20;;;;;;4962476;28;20072;-57
2022/07/28 09:11:08;;;;;;;3.63;1.30;;;32.10;49.30;;;;;;4969992;28;20489;-59
2022/07/28 09:13:34;;;;;;;5.05;1.40;;;31.40;49.80;;;;;;4965819;28;20059;-59
2022/07/28 09:16:00;;;;;;;5.90;1.52;;;31.40;50.70;;;;;;4968347;28;20106;-62
2022/07/28 09:18:26;;;;;;;2.97;0.93;;;31.90;50.90;;;;;;4976874;28;20114;-57
2022/07/28 09:20:52;;;;;;;5.95;1.50;;;32.10;50.20;;;;;;4969212;28;20035;-57
2022/07/28 09:23:18;;;;;;;3.10;1.00;;;32.10;50.30;;;;;;4968905;28;20062;-59
2022/07/28 09:25:43;;;;;;;7.72;1.48;;;32.20;49.60;;;;;;4969979;28;20050;-59
2022/07/28 09:28:11;;;;;;;2.45;0.90;;;32.20;50.00;;;;;;4969515;28;20038;-58
2022/07/28 09:30:40;;;;;;;1.92;0.95;;;32.10;49.10;;;;;;4949759;28;20055;-60
2022/07/28 09:33:31;;;;;;;4.97;0.90;;;31.60;48.30;;;;;;4969250;28;20037;-59
2022/07/28 09:35:58;;;;;;;4.95;1.27;;;31.20;50.00;;;;;;4966007;28;20035;-60
2022/07/28 09:38:26;;;;;;;5.70;1.02;;;31.50;49.90;;;;;;4971293;28;20026;-60
2022/07/28 09:41:01;;;;;;;4.53;1.30;;;31.30;49.20;;;;;;4968843;28;20031;-56
2022/07/28 09:43:35;;;;;;;2.50;1.05;;;31.20;50.10;;;;;;4961047;28;20030;-60
2022/07/28 09:46:10;;;;;;;3.17;0.93;;;31.20;50.10;;;;;;4970837;28;20444;-58
2022/07/28 09:48:48;;;;;;;1.77;0.93;;;31.20;50.70;;;;;;4971369;28;20030;-61
2022/07/28 09:51:15;;;;;;;3.35;0.90;;;30.80;50.80;;;;;;4970381;28;20042;-60
2022/07/28 09:53:42;;;;;;;1.98;0.80;;;31.20;49.40;;;;;;4971095;28;20035;-58
2022/07/28 09:56:09;;;;;;;6.00;1.35;;;30.90;49.90;;;;;;4969828;28;20038;-60
2022/07/28 09:58:36;;;;;;;3.20;1.38;;;31.20;49.60;;;;;;4976565;28;20445;-60
2022/07/28 10:01:08;;;;;;;1.75;0.80;;;31.40;49.30;;;;;;4970537;28;20030;-60
2022/07/28 10:03:35;;;;;;;2.65;1.13;;;31.10;49.10;;;;;;4970621;28;20564;-62
2022/07/28 10:06:07;;;;;;;3.80;0.93;;;31.20;49.40;;;;;;4969357;28;20042;-58
2022/07/28 10:08:50;;;;;;;5.30;1.30;;;31.20;49.20;;;;;;4952581;28;20477;-59
2022/07/28 10:11:19;;;;;;;3.75;1.10;;;30.70;49.40;;;;;;4969999;28;20027;-59
2022/07/28 10:14:04;;;;;;;3.00;1.02;;;30.10;51.10;;;;;;4971063;28;20097;-59
2022/07/28 10:16:35;;;;;;;5.47;1.10;;;29.60;52.90;;;;;;4967479;28;20473;-58
2022/07/28 10:19:03;;;;;;;4.80;1.25;;;29.80;53.00;;;;;;4970460;28;20034;-58
2022/07/28 10:21:38;;;;;;;5.22;0.98;;;29.40;52.10;;;;;;4970113;28;20090;-59
2022/07/28 10:24:05;;;;;;;3.28;1.15;;;28.80;53.40;;;;;;4971118;28;20035;-61
2022/07/28 10:26:42;;;;;;;5.82;1.30;;;28.80;55.40;;;;;;4974779;28;20058;-62
2022/07/28 10:29:12;;;;;;;8.98;1.33;;;28.90;53.60;;;;;;4958572;28;20038;-59
2022/07/28 10:31:53;;;;;;;10.07;1.17;;;28.90;53.40;;;;;;4973848;28;20038;-59
2022/07/28 10:34:50;;;;;;;2.40;1.23;;;29.00;54.60;;;;;;4989939;23;20456;-57
2022/07/28 10:37:20;;;;;;;4.57;1.05;;;28.90;52.30;;;;;;4956139;28;20042;-57
2022/07/28 10:39:54;;;;;;;10.70;1.42;;;28.40;51.60;;;;;;4972665;28;20372;-57
2022/07/28 10:42:20;;;;;;;3.25;1.27;;;27.80;53.50;;;;;;4971862;28;20042;-56
2022/07/28 10:44:45;;;;;;;4.57;1.17;;;27.60;54.10;;;;;;4972121;28;20496;-58
2022/07/28 10:47:11;;;;;;;5.72;1.10;;;27.40;53.70;;;;;;4970871;28;20030;-56
2022/07/28 10:49:40;;;;;;;3.40;1.00;;;27.50;55.00;;;;;;4972647;28;20025;-57
2022/07/28 10:52:09;;;;;;;2.00;0.85;;;27.40;54.10;;;;;;4968197;28;20420;-57
2022/07/28 10:54:58;;;;;;;3.80;1.02;;;27.30;53.50;;;;;;4973752;28;20026;-56
2022/07/28 10:57:25;;;;;;;5.35;1.50;;;27.50;54.10;;;;;;4972060;28;20039;-57
2022/07/28 10:59:58;;;;;;;4.18;0.90;;;27.50;54.50;;;;;;4963567;28;20440;-55
2022/07/28 11:02:46;;;;;;;3.30;1.02;;;27.60;55.70;;;;;;4972099;28;20023;-58
2022/07/28 11:05:35;;;;;;;1.90;1.00;;;27.70;54.20;;;;;;4965157;28;20030;-57
2022/07/28 11:08:25;;;;;;;3.22;0.80;;;27.50;54.90;;;;;;4973456;28;20477;-57
2022/07/28 11:10:52;;;;;;;5.97;1.20;;;27.70;54.90;;;;;;4969877;28;20085;-58
2022/07/28 11:13:29;;;;;;;9.00;1.40;;;27.70;53.60;;;;;;4973367;28;20532;-59
2022/07/28 11:15:56;;;;;;;5.93;1.00;;;27.70;54.10;;;;;;4970048;28;20105;-56
2022/07/28 11:18:22;;;;;;;6.63;1.27;;;27.50;54.70;;;;;;4973254;28;20050;-57
2022/07/28 11:20:56;;;;;;;2.65;0.90;;;27.70;54.30;;;;;;4970804;28;20069;-53
2022/07/28 11:23:48;;;;;;;7.43;1.63;;;27.60;54.40;;;;;;4973167;28;20093;-58
2022/07/28 11:26:23;;;;;;;6.70;1.00;;;27.60;55.40;;;;;;4971097;28;20053;-58
2022/07/28 11:29:04;;;;;;;1.92;1.10;;;27.50;53.90;;;;;;4967804;28;20046;-58
2022/07/28 11:31:47;;;;;;;2.90;1.15;;;27.40;53.80;;;;;;4962678;28;20050;-58
2022/07/28 11:34:16;;;;;;;;;;;27.70;55.30;;;;;;4975535;28;20516;-56
2022/07/28 11:36:57;;;;;;;1.70;1.00;;;27.70;55.10;;;;;;4971515;28;19917;-57
2022/07/28 11:39:29;;;;;;;4.68;1.10;;;27.80;55.60;;;;;;4970784;28;20065;-57
2022/07/28 11:41:54;;;;;;;5.82;1.30;;;27.70;54.00;;;;;;4964535;28;20106;-57
2022/07/28 11:44:28;;;;;;;2.55;0.73;;;27.50;54.80;;;;;;4968025;28;20086;-57
2022/07/28 11:47:17;;;;;;;3.22;1.10;;;27.20;53.60;;;;;;4975494;28;20042;-56
2022/07/28 11:49:44;;;;;;;6.18;1.08;;;27.30;55.50;;;;;;4965543;28;20090;-58
2022/07/28 11:52:13;;;;;;;2.33;0.93;;;27.30;53.80;;;;;;4965452;28;20019;-58
2022/07/28 11:54:40;;;;;;;5.90;1.20;;;27.30;53.70;;;;;;4965709;28;20049;-54
2022/07/28 11:57:08;;;;;;;1.95;1.02;;;27.50;54.80;;;;;;4969307;28;20135;-57
2022/07/28 11:59:45;;;;;;;4.20;1.17;;;27.50;53.00;;;;;;4968550;28;20106;-54
2022/07/28 12:02:15;;;;;;;2.88;1.20;;;27.60;52.40;;;;;;4967744;28;20645;-57
2022/07/28 12:04:41;;;;;;;1.58;0.80;;;27.40;53.60;;;;;;4964292;28;20715;-58
2022/07/28 12:07:09;;;;;;;3.97;1.13;;;27.50;55.70;;;;;;4967223;28;20377;-57
2022/07/28 12:09:36;;;;;;;9.27;1.58;;;27.40;54.60;;;;;;4961161;28;20054;-56
2022/07/28 12:12:02;;;;;;;4.10;1.02;;;27.30;54.20;;;;;;4970389;28;20567;-57
2022/07/28 12:14:28;;;;;;;4.05;1.05;;;27.30;56.40;;;;;;4964522;28;20030;-54
2022/07/28 12:16:55;;;;;;;2.67;1.00;;;27.50;54.20;;;;;;4964522;28;20062;-58
2022/07/28 12:19:21;;;;;;;3.30;1.25;;;27.70;55.40;;;;;;4968798;28;20019;-58
2022/07/28 12:21:51;;;;;;;2.30;0.90;;;27.80;54.00;;;;;;4967716;28;20041;-58
2022/07/28 12:24:24;;;;;;;5.97;1.35;;;27.90;53.10;;;;;;4970884;28;20038;-55
2022/07/28 12:26:50;;;;;;;3.08;0.93;;;27.80;53.00;;;;;;4971231;28;20057;-57
2022/07/28 12:29:16;;;;;;;5.65;1.05;;;27.70;54.70;;;;;;4970013;28;20485;-57
2022/07/28 12:31:55;;;;;;;2.38;1.00;;;27.70;54.00;;;;;;4952982;28;20489;-57
2022/07/28 12:34:21;;;;;;;5.60;1.00;;;27.60;53.00;;;;;;4971743;28;20034;-58
2022/07/28 12:36:47;;;;;;;3.67;1.42;;;27.60;54.50;;;;;;4970285;28;20035;-58
2022/07/28 12:39:16;;;;;;;6.80;1.05;;;27.60;53.40;;;;;;4970544;28;20023;-57
2022/07/28 12:41:42;;;;;;;6.88;1.13;;;27.70;54.00;;;;;;4963487;28;20547;-58
2022/07/28 12:44:08;;;;;;;3.33;1.00;;;27.70;53.60;;;;;;4963580;28;20077;-56
2022/07/28 12:46:34;;;;;;;3.92;1.10;;;27.80;54.40;;;;;;4970258;28;20042;-58
2022/07/28 12:49:01;;;;;;;2.90;0.95;;;27.50;53.60;;;;;;4969657;28;20562;-59
2022/07/28 12:51:33;;;;;;;5.70;1.40;;;27.80;54.90;;;;;;4970222;28;20058;-57
2022/07/28 12:53:59;;;;;;;4.65;1.00;;;28.30;52.90;;;;;;4970795;28;20054;-55
2022/07/28 12:56:24;;;;;;;3.75;1.17;;;27.90;52.00;;;;;;4969234;28;20023;-55